ЗЦ Ростов-на-Дону

ЗЦ ЕС ОрВД Ростов

Лого ЗЦ Ростов-на-Дону
Руководитель региона

Grigori Badalov

Контакты

Инструкторы региона
George Kalandadze * (Senior Student)
Grigori Badalov (Instructor)
Valeriy Polostyanoy (Instructor)
Включает в себя

РПИ Баку
РПИ Ереван
РПИ Ростов-на-Дону
РПИ Тбилиси*

Диспетчеры региона

Диспетчер Рейтинг Допуски *
Artem Smorchkov Controller URRV_CTR
Grigori Badalov Instructor UBBA_CTR, UDDD_CTR, URRV_CTR, UGGG_CTR
Ivan Chernov Senior Controller UBBA_CTR, UDDD_CTR, URRV_CTR, UGGG_CTR
Valeriy Polostyanoy Instructor UBBA_CTR, UDDD_CTR, URRV_CTR, UGGG_CTR
Alikhan Aidarbek Student URSS_GND
Andrey Tatarov Student URSS_GND
Anton Nikolaev Student 2 URSS_TWR, URSS_R_APP*
Daniel Ryabkov Student 2 URSS_TWR*
Denis Zhuchkov Student 2 URSS_R_APP*
George Kalandadze Senior Student UGSB_APP, UGTB_APP, UGKO_APP
Gregory Adamov Student 2 UBBB_TWR, URSS_TWR
Kirill Valigun Student 2 URSS_GND
Maksim Kholodilov Student SIP_GND
Maxim Baglikov Student SIP_GND
Renat Yengulatov Student URSS_GND
Sergey Vologzhin Student URSS_GND, URSS_TWR*
Tigran Areian Senior Student URSS_APP

Аэропорты региона

ICAO Город Название Погода
UBBB Баку Баку UBBB 161900Z 11004KT CAVOK 04/M00 Q1017 NOSIG
UDYZ Ереван Звартноц UDYZ 161900Z 00000KT 9999 NSC M06/M13 Q1015 R09/010070 NOSIG
URFF Симферополь Симферополь URFF 161900Z 20002MPS 9999 OVC046 00/M05 Q1022 R01/090095 NOSIG
URSS Сочи Сочи URSS 161900Z 05002MPS 9999 FEW040CB M02/M03 Q1020 R02/010070 R06/010070 NOSIG RMK R06/35001MPS MT OBSC QFE764
UGTB Тбилиси Тбилиси UGTB 161900Z 33014KT CAVOK M00/M05 Q1017 NOSIG
URRY
URKA Анапа Анапа URKA 161900Z 31003MPS 9999 BKN062CB 01/M01 Q1021 R04/010070 TEMPO 3000 -SHSNRA SCT011 BKN020CB RMK QFE762/1016
URWA Астрахань Астрахань URWA 161900Z 27006MPS 9999 BKN026 M01/M04 Q1015 R27/350055 NOSIG RMK QFE763/1017
UGSB Батуми Батуми UGSB 161900Z 22012KT 180V240 9999 SCT009 BKN025CB 03/01 Q1022 NOSIG
URMO Владикавказ Беслан URMO 161900Z AUTO 13002MPS 110V180 7000 -SN ///020/// M03/M04 Q1018 RMK QFE720/0960
URWW Волгоград Волгоград URWW 161900Z 28006MPS 9999 BKN021 M05/M08 Q1013 R24/850340 TEMPO 0200 FZFG OVC002
UBBQ Габала Габала UBBQ 161900Z 18004KT 9999 SCT180 M04/M09 Q1016 NOSIG RMK MT OP
URKG Геленджик Геленджик
URMG Грозный Грозный URMG 161900Z 27003MPS 240V300 9999 SCT/// BKN073 M01/M03 Q1020 R26/090070 NOSIG RMK QFE750/1000
UDSG Гюмри Ширак UDSG 161900Z 00000KT 9999 NSC M23/M27 Q1013 RMK R02/CLRD70 NOSIG
UBBG Гянджа Гянджа UBBG 161900Z 21006KT 9999 SCT100 M02/M11 Q1017 NOSIG
UDYE Ереван Эребуни
URKK Краснодар Пашковский URKK 161900Z 23004MPS 9999 BKN025CB M00/M02 Q1021 R23L/290060 NOSIG RMK QFE762
UGKO Кутаиси Кутаиси UGKO 161900Z 16003KT 130V230 9999 SCT027 BKN040 M00/M01 Q1020 NOSIG
URML Махачкала Уйташ URML 161900Z 28003MPS 9999 FEW075 02/M06 Q1019 R32/01//70 NOSIG RMK QFE764/1019
URMM Минеральные Воды Минеральные Воды URMM 161900Z 29007MPS 9999 OVC052 M02/M06 Q1019 R30/190160 NOSIG RMK QFE735/0981
URMS Назрань Магас
URMN Нальчик Нальчик URMN 161900Z 18003MPS 9999 OVC030CB M02/M07 Q1017 R24/////// NOSIG RMK QFE726
UBBN Нахичевань Нахичевань UBBN 161900Z 09006KT 9999 SCT040 OVC080 M06/M08 Q1014 NOSIG RMK MT OP QFE685
URRP Ростов-на-Дону Платов URRP 161900Z 31004MPS 9999 FEW/// M01/M03 Q1017 R23/CLRD70 NOSIG RMK QFE755/1007
URRR Ростов-на-Дону Ростов-на-Дону
URMT Ставрополь Ставрополь URMT 161900Z 29006MPS 9999 BKN046 M04/M07 Q1017 R25/850337 NOSIG RMK QFE724
URWI Элиста Элиста URWI 161900Z AUTO 28007MPS 9999 // ///030/// M03/M04 Q1016
UGAM Амбролаури Амбролаури UGAM 161900Z AUTO 06002KT //// ////// M06/M07 Q1018
UBBL Ленкорань Ленкорань UBBL 161900Z VRB02KT 9999 OVC048 05/M04 Q1018 NOSIG RMK MT OP
UGMS Местия Местия UGMS 161900Z AUTO 29001KT //// ////// M11/M13 Q1014
UGSA Натахтари Натахтари
UGGT Телави Телави